createdAt,value
2022-09-01T00:00:55.389Z,99484.72
2022-09-01T00:01:57.946Z,99486.63
2022-09-01T00:03:00.323Z,99481.16
2022-09-01T00:04:04.293Z,99486.06
2022-09-01T00:05:07.718Z,99485.94
2022-09-01T00:06:11.595Z,99482.66
2022-09-01T00:07:14.720Z,99489.09
2022-09-01T00:08:18.475Z,99488.69
2022-09-01T00:09:23.190Z,99484.81
2022-09-01T00:10:25.462Z,99488.41
2022-09-01T00:11:29.039Z,99488.28
2022-09-01T00:12:31.962Z,99491.25
2022-09-01T00:13:34.324Z,99489.44
2022-09-01T00:14:41.531Z,99490.94
2022-09-01T00:15:44.184Z,99484.69
2022-09-01T00:16:46.561Z,99489.31
2022-09-01T00:17:53.941Z,99493.84
2022-09-01T00:18:57.900Z,99482.78
2022-09-01T00:20:00.223Z,99479.72
2022-09-01T00:21:02.460Z,99484.06
2022-09-01T00:22:04.968Z,99481.50
2022-09-01T00:23:07.217Z,99485.78
2022-09-01T00:24:11.154Z,99483.03
2022-09-01T00:25:13.448Z,99486.38
2022-09-01T00:26:15.693Z,99482.19
2022-09-01T00:27:17.961Z,99477.25
2022-09-01T00:28:21.476Z,99487.19
2022-09-01T00:29:31.444Z,99485.41
2022-09-01T00:30:33.709Z,99482.06
2022-09-01T00:31:36.496Z,99485.28
2022-09-01T00:32:38.861Z,99468.91
2022-09-01T00:33:41.587Z,99479.97
2022-09-01T00:34:43.767Z,99478.28
2022-09-01T00:35:46.034Z,99479.25
2022-09-01T00:36:48.770Z,99484.09
2022-09-01T00:37:51.168Z,99479.66
2022-09-01T00:38:54.042Z,99478.72
2022-09-01T00:39:56.418Z,99475.94
2022-09-01T00:41:00.666Z,99477.03
2022-09-01T00:42:03.596Z,99480.41
2022-09-01T00:43:20.592Z,99475.06
2022-09-01T00:44:28.845Z,99477.75
2022-09-01T00:45:33.523Z,99479.50
2022-09-01T00:46:51.013Z,99478.56
2022-09-01T00:47:57.397Z,99482.06
2022-09-01T00:49:04.758Z,99469.69
2022-09-01T00:50:09.573Z,99468.91
2022-09-01T00:51:13.071Z,99473.38
2022-09-01T00:52:39.189Z,99474.13
2022-09-01T00:53:43.953Z,99470.53
2022-09-01T00:54:50.473Z,99482.19
2022-09-01T00:55:52.906Z,99467.03
2022-09-01T00:56:57.679Z,99474.19
2022-09-01T00:58:03.329Z,99472.41
2022-09-01T00:59:07.550Z,99474.91
2022-09-01T01:00:15.658Z,99474.91
2022-09-01T01:01:18.268Z,99474.97
2022-09-01T01:02:20.659Z,99467.03
2022-09-01T01:03:24.031Z,99469.91
2022-09-01T01:04:26.320Z,99472.47
2022-09-01T01:05:36.469Z,99470.09
2022-09-01T01:06:39.292Z,99463.00
2022-09-01T01:07:46.027Z,99459.72
2022-09-01T01:08:58.097Z,99451.25
2022-09-01T01:10:00.382Z,99457.31
2022-09-01T01:11:09.380Z,99468.06
2022-09-01T01:12:13.709Z,99460.22
2022-09-01T01:13:17.072Z,99457.78
2022-09-01T01:14:20.157Z,99461.41
2022-09-01T01:15:22.412Z,99457.09
2022-09-01T01:16:27.608Z,99453.31
2022-09-01T01:17:29.863Z,99456.25
2022-09-01T01:18:32.100Z,99454.81
2022-09-01T01:20:05.381Z,99454.72
2022-09-01T01:21:36.240Z,99452.06
2022-09-01T01:23:03.675Z,99453.28
2022-09-01T01:24:27.442Z,99439.97
2022-09-01T01:25:34.361Z,99448.06
2022-09-01T01:26:37.228Z,99450.72
2022-09-01T01:27:43.102Z,99440.97
2022-09-01T01:28:45.618Z,99441.16
2022-09-01T01:29:50.126Z,99439.44
2022-09-01T01:30:59.306Z,99443.19
2022-09-01T01:32:02.109Z,99427.53
2022-09-01T01:33:05.882Z,99441.50
2022-09-01T01:34:08.794Z,99432.63
2022-09-01T01:35:14.761Z,99428.44
2022-09-01T01:36:36.218Z,99436.38
2022-09-01T01:37:39.575Z,99434.53
2022-09-01T01:38:44.423Z,99435.28
2022-09-01T01:39:49.114Z,99434.44
2022-09-01T01:40:53.687Z,99440.75
2022-09-01T01:41:59.085Z,99433.00
2022-09-01T01:43:01.950Z,99430.50
2022-09-01T01:44:05.243Z,99431.63
2022-09-01T01:45:12.573Z,99438.53
2022-09-01T01:46:18.981Z,99429.78
2022-09-01T01:47:21.887Z,99437.88
2022-09-01T01:48:24.712Z,99429.06
2022-09-01T01:49:31.047Z,99432.59
2022-09-01T01:50:35.719Z,99421.06
2022-09-01T01:51:39.547Z,99433.31
2022-09-01T01:52:45.489Z,99427.97
2022-09-01T01:53:52.532Z,99427.00
2022-09-01T01:54:55.392Z,99433.16
2022-09-01T01:56:00.853Z,99430.88
2022-09-01T01:57:08.043Z,99437.00
2022-09-01T01:58:15.289Z,99426.88
2022-09-01T01:59:19.585Z,99437.00
2022-09-01T02:00:27.068Z,99429.06
2022-09-01T02:01:33.390Z,99433.78
2022-09-01T02:02:38.013Z,99432.09
2022-09-01T02:03:40.813Z,99428.66
2022-09-01T02:04:43.451Z,99436.59
2022-09-01T02:05:49.192Z,99424.81
2022-09-01T02:06:52.258Z,99431.81
2022-09-01T02:07:56.693Z,99433.84
2022-09-01T02:09:03.469Z,99439.31
2022-09-01T02:10:06.742Z,99427.22
2022-09-01T02:11:09.189Z,99430.78
2022-09-01T02:12:11.971Z,99426.97
2022-09-01T02:13:25.095Z,99435.91
2022-09-01T02:14:29.093Z,99434.63
2022-09-01T02:15:35.042Z,99429.53
2022-09-01T02:16:37.405Z,99432.91
2022-09-01T02:17:43.122Z,99427.53
2022-09-01T02:18:49.869Z,99434.09
2022-09-01T02:19:57.467Z,99428.94
2022-09-01T02:21:00.874Z,99427.47
2022-09-01T02:22:03.174Z,99420.22
2022-09-01T02:23:10.579Z,99429.09
2022-09-01T02:24:13.685Z,99431.81
2022-09-01T02:25:16.580Z,99429.19
2022-09-01T02:26:19.014Z,99419.38
2022-09-01T02:27:25.769Z,99426.47
2022-09-01T02:28:32.043Z,99418.53
2022-09-01T02:29:37.069Z,99412.88
2022-09-01T02:30:49.208Z,99432.31
2022-09-01T02:31:54.120Z,99418.25
2022-09-01T02:32:58.395Z,99416.22
2022-09-01T02:34:03.714Z,99418.78
2022-09-01T02:35:09.919Z,99420.56
2022-09-01T02:36:16.248Z,99424.22
2022-09-01T02:37:18.458Z,99430.47
2022-09-01T02:38:26.200Z,99418.94
2022-09-01T02:39:33.456Z,99420.72
2022-09-01T02:40:39.118Z,99424.22
2022-09-01T02:41:42.139Z,99427.28
2022-09-01T02:42:47.320Z,99414.28
2022-09-01T02:43:50.078Z,99418.53
2022-09-01T02:44:56.165Z,99417.66
2022-09-01T02:46:01.251Z,99420.56
2022-09-01T02:47:05.467Z,99414.84
2022-09-01T02:48:10.379Z,99410.69
2022-09-01T02:49:17.461Z,99420.31
2022-09-01T02:50:20.171Z,99405.56
2022-09-01T02:51:25.459Z,99415.97
2022-09-01T02:52:29.699Z,99411.50
2022-09-01T02:53:36.038Z,99406.16
2022-09-01T02:54:39.017Z,99415.53
2022-09-01T02:55:43.046Z,99409.41
2022-09-01T02:56:49.847Z,99413.91
2022-09-01T02:57:55.575Z,99416.63
2022-09-01T02:58:57.929Z,99414.69
2022-09-01T03:00:02.015Z,99420.38
2022-09-01T03:01:13.710Z,99406.44
2022-09-01T03:02:16.140Z,99404.19
2022-09-01T03:03:19.993Z,99407.63
2022-09-01T03:04:24.320Z,99401.47
2022-09-01T03:05:30.049Z,99406.75
2022-09-01T03:06:34.265Z,99410.44
2022-09-01T03:07:37.910Z,99414.53
2022-09-01T03:08:40.178Z,99406.91
2022-09-01T03:09:43.686Z,99410.59
2022-09-01T03:10:47.280Z,99409.91
2022-09-01T03:11:52.458Z,99411.53
2022-09-01T03:12:54.935Z,99410.44
2022-09-01T03:13:57.665Z,99409.25
2022-09-01T03:14:59.957Z,99398.56
2022-09-01T03:16:02.561Z,99403.09
2022-09-01T03:17:04.833Z,99399.97
2022-09-01T03:18:08.996Z,99399.88
2022-09-01T03:19:15.003Z,99393.66
2022-09-01T03:20:19.485Z,99399.88
2022-09-01T03:21:23.275Z,99397.66
2022-09-01T03:22:26.983Z,99386.56
2022-09-01T03:23:31.317Z,99385.97
2022-09-01T03:24:33.604Z,99388.13
2022-09-01T03:25:36.788Z,99388.69
2022-09-01T03:26:40.420Z,99393.47
2022-09-01T03:27:42.954Z,99389.13
2022-09-01T03:28:46.944Z,99389.91
2022-09-01T03:29:49.275Z,99388.19
2022-09-01T03:30:54.054Z,99394.59
2022-09-01T03:31:57.042Z,99390.94
2022-09-01T03:33:01.477Z,99379.28
2022-09-01T03:34:05.989Z,99395.69
2022-09-01T03:35:12.880Z,99391.16
2022-09-01T03:36:19.214Z,99399.00
2022-09-01T03:37:23.216Z,99391.75
2022-09-01T03:38:29.492Z,99386.22
2022-09-01T03:39:32.089Z,99393.66
2022-09-01T03:40:36.714Z,99397.91
2022-09-01T03:41:39.014Z,99391.50
2022-09-01T03:42:43.679Z,99390.84
2022-09-01T03:43:48.562Z,99391.00
2022-09-01T03:44:51.890Z,99390.06
2022-09-01T03:45:56.503Z,99390.50
2022-09-01T03:47:01.333Z,99387.84
2022-09-01T03:48:09.000Z,99386.75
2022-09-01T03:49:15.602Z,99387.69
2022-09-01T03:50:21.899Z,99387.13
2022-09-01T03:51:28.249Z,99396.06
2022-09-01T03:52:30.563Z,99389.09
2022-09-01T03:53:37.559Z,99382.94
2022-09-01T03:54:40.774Z,99385.78
2022-09-01T03:55:45.766Z,99376.22
2022-09-01T03:56:49.114Z,99379.97
2022-09-01T03:57:55.865Z,99381.50
2022-09-01T03:58:59.725Z,99372.66
2022-09-01T04:00:02.353Z,99376.03
2022-09-01T04:01:05.875Z,99379.28
2022-09-01T04:02:15.075Z,99378.91
2022-09-01T04:03:28.372Z,99377.50
2022-09-01T04:04:32.988Z,99379.19
2022-09-01T04:05:37.557Z,99378.59
2022-09-01T04:06:41.157Z,99383.81
2022-09-01T04:07:45.739Z,99376.03
2022-09-01T04:08:48.225Z,99376.75
2022-09-01T04:09:52.620Z,99372.00
2022-09-01T04:10:55.431Z,99378.91
2022-09-01T04:11:57.822Z,99386.97
2022-09-01T04:13:00.453Z,99387.31
2022-09-01T04:14:02.766Z,99381.75
2022-09-01T04:15:09.195Z,99382.19
2022-09-01T04:16:47.655Z,99391.22
2022-09-01T04:18:08.918Z,99384.31
2022-09-01T04:19:20.403Z,99378.59
2022-09-01T04:20:23.492Z,99378.81
2022-09-01T04:21:26.379Z,99383.81
2022-09-01T04:22:31.904Z,99387.25
2022-09-01T04:23:37.006Z,99370.97
2022-09-01T04:24:45.312Z,99380.44
2022-09-01T04:25:50.438Z,99383.44
2022-09-01T04:26:55.074Z,99379.66
2022-09-01T04:27:58.693Z,99389.81
2022-09-01T04:29:01.007Z,99381.63
2022-09-01T04:30:03.747Z,99379.59
2022-09-01T04:31:14.865Z,99377.69
2022-09-01T04:32:21.541Z,99370.34
2022-09-01T04:33:38.169Z,99385.09
2022-09-01T04:34:41.696Z,99384.84
2022-09-01T04:35:46.200Z,99377.59
2022-09-01T04:36:50.047Z,99393.53
2022-09-01T04:37:56.591Z,99387.44
2022-09-01T04:39:01.270Z,99391.47
2022-09-01T04:40:04.580Z,99381.63
2022-09-01T04:41:07.617Z,99390.22
2022-09-01T04:42:11.130Z,99384.09
2022-09-01T04:43:13.452Z,99385.28
2022-09-01T04:44:18.951Z,99389.19
2022-09-01T04:45:27.315Z,99393.63
2022-09-01T04:46:32.878Z,99382.06
2022-09-01T04:47:37.562Z,99393.13
2022-09-01T04:48:45.025Z,99379.31
2022-09-01T04:49:48.970Z,99390.06
2022-09-01T04:50:52.373Z,99392.53
2022-09-01T04:52:01.024Z,99392.63
2022-09-01T04:53:06.053Z,99390.50
2022-09-01T04:54:14.620Z,99384.03
2022-09-01T04:55:20.680Z,99380.50
2022-09-01T04:56:25.170Z,99382.03
2022-09-01T04:57:49.974Z,99386.16
2022-09-01T04:58:55.812Z,99390.56
2022-09-01T04:59:58.466Z,99384.16
2022-09-01T05:01:06.277Z,99389.03
2022-09-01T05:02:10.323Z,99389.81
2022-09-01T05:03:12.629Z,99393.13
2022-09-01T05:04:33.690Z,99379.66
2022-09-01T05:05:43.015Z,99381.25
2022-09-01T05:06:50.359Z,99375.63
2022-09-01T05:07:55.289Z,99381.06
2022-09-01T05:08:58.839Z,99385.31
2022-09-01T05:10:22.058Z,99390.00
2022-09-01T05:11:45.419Z,99391.34
2022-09-01T05:12:57.255Z,99393.00
2022-09-01T05:14:00.149Z,99402.31
2022-09-01T05:15:06.265Z,99413.13
2022-09-01T05:16:14.492Z,99415.38
2022-09-01T05:17:18.930Z,99437.78
2022-09-01T05:18:25.292Z,99439.28
2022-09-01T05:19:29.568Z,99444.06
2022-09-01T05:20:36.486Z,99457.53
2022-09-01T05:21:38.796Z,99454.16
2022-09-01T05:22:42.118Z,99452.66
2022-09-01T05:23:46.285Z,99461.03
2022-09-01T05:24:51.376Z,99457.50
2022-09-01T05:25:57.797Z,99465.94
2022-09-01T05:27:00.647Z,99464.78
2022-09-01T05:28:03.805Z,99459.44
2022-09-01T05:29:13.683Z,99467.91
2022-09-01T05:30:18.636Z,99479.25
2022-09-01T05:31:23.607Z,99484.44
2022-09-01T05:32:26.957Z,99470.88
2022-09-01T05:33:29.387Z,99479.34
2022-09-01T05:34:36.312Z,99468.28
2022-09-01T05:35:43.505Z,99475.09
2022-09-01T05:36:46.225Z,99475.34
2022-09-01T05:37:51.705Z,99487.19
2022-09-01T05:38:54.831Z,99493.69
2022-09-01T05:39:58.540Z,99487.66
2022-09-01T05:41:08.477Z,99481.72
2022-09-01T05:42:10.842Z,99491.34
2022-09-01T05:43:14.833Z,99489.56
2022-09-01T05:44:18.360Z,99497.84
2022-09-01T05:45:26.713Z,99497.72
2022-09-01T05:46:30.042Z,99489.91
2022-09-01T05:47:36.498Z,99495.06
2022-09-01T05:48:39.772Z,99494.81
2022-09-01T05:49:44.113Z,99498.03
2022-09-01T05:50:46.732Z,99509.91
2022-09-01T05:51:51.686Z,99507.59
2022-09-01T05:52:57.460Z,99506.63
2022-09-01T05:54:00.259Z,99500.56
2022-09-01T05:55:09.083Z,99503.69
2022-09-01T05:56:15.203Z,99507.13
2022-09-01T05:57:33.974Z,99504.72
2022-09-01T06:00:01.909Z,99507.97
2022-09-01T06:01:05.746Z,99506.44
2022-09-01T06:02:09.286Z,99511.13
2022-09-01T06:03:11.982Z,99508.72
2022-09-01T06:04:18.080Z,99508.34
2022-09-01T06:05:21.172Z,99504.47
2022-09-01T06:06:36.734Z,99502.31
2022-09-01T06:07:47.210Z,99507.47
2022-09-01T06:08:51.728Z,99514.50
2022-09-01T06:09:54.709Z,99514.13
2022-09-01T06:10:58.648Z,99507.44
2022-09-01T06:12:01.839Z,99509.91
2022-09-01T06:13:05.979Z,99519.31
2022-09-01T06:14:11.228Z,99517.53
2022-09-01T06:15:16.393Z,99508.59
2022-09-01T06:16:24.277Z,99510.66
2022-09-01T06:17:30.812Z,99511.72
2022-09-01T06:18:38.893Z,99511.75
2022-09-01T06:19:42.654Z,99510.59
2022-09-01T06:20:47.704Z,99510.25
2022-09-01T06:21:51.245Z,99517.34
2022-09-01T06:22:53.800Z,99517.94
2022-09-01T06:23:58.137Z,99524.38
2022-09-01T06:25:02.813Z,99516.53
2022-09-01T06:26:18.949Z,99519.22
2022-09-01T06:27:22.131Z,99518.34
2022-09-01T06:28:25.449Z,99525.50
2022-09-01T06:29:28.469Z,99520.13
2022-09-01T06:30:34.747Z,99512.59
2022-09-01T06:31:42.428Z,99522.19
2022-09-01T06:32:46.693Z,99518.22
2022-09-01T06:33:51.112Z,99526.75
2022-09-01T06:34:53.465Z,99524.44
2022-09-01T06:35:55.915Z,99521.19
2022-09-01T06:36:59.779Z,99518.56
2022-09-01T06:38:02.765Z,99530.19
2022-09-01T06:39:19.600Z,99508.66
2022-09-01T06:40:25.434Z,99510.81
2022-09-01T06:41:29.033Z,99510.63
2022-09-01T06:42:35.258Z,99510.56
2022-09-01T06:43:40.093Z,99514.78
2022-09-01T06:44:43.199Z,99519.47
2022-09-01T06:45:54.341Z,99514.53
2022-09-01T06:46:59.892Z,99511.78
2022-09-01T06:48:02.368Z,99530.94
2022-09-01T06:49:05.840Z,99519.53
2022-09-01T06:50:08.631Z,99511.25
2022-09-01T06:51:18.549Z,99506.72
2022-09-01T06:52:25.616Z,99512.91
2022-09-01T06:53:32.519Z,99512.03
2022-09-01T06:54:39.248Z,99510.66
2022-09-01T06:55:41.746Z,99513.44
2022-09-01T06:56:44.975Z,99517.97
2022-09-01T06:59:23.265Z,99514.34
2022-09-01T07:00:26.651Z,99520.19
2022-09-01T07:01:30.389Z,99518.31
2022-09-01T07:02:33.727Z,99507.94
2022-09-01T07:08:31.725Z,99515.50
2022-09-01T07:09:47.917Z,99523.34
2022-09-01T07:12:25.917Z,99528.44
2022-09-01T07:13:30.811Z,99521.78
2022-09-01T07:16:32.132Z,99521.97
2022-09-01T07:17:24.373Z,99522.06
2022-09-01T07:18:28.814Z,99526.69
2022-09-01T07:21:38.866Z,99529.22
2022-09-01T07:22:35.939Z,99528.78
2022-09-01T07:23:47.366Z,99532.00
2022-09-01T07:25:16.792Z,99527.56
2022-09-01T07:26:52.160Z,99533.34
2022-09-01T07:27:54.628Z,99533.25
2022-09-01T07:29:01.483Z,99527.81
2022-09-01T07:30:04.279Z,99532.59
2022-09-01T07:32:47.991Z,99546.47
2022-09-01T07:33:55.738Z,99545.31
2022-09-01T07:35:22.440Z,99550.47
2022-09-01T07:36:26.918Z,99545.63
2022-09-01T07:39:57.655Z,99521.28
2022-09-01T07:44:13.655Z,99546.38
2022-09-01T07:45:47.211Z,99543.06
2022-09-01T07:47:19.566Z,99555.16
2022-09-01T07:48:36.636Z,99542.53
2022-09-01T07:52:31.397Z,99553.69
2022-09-01T07:53:35.971Z,99550.41
2022-09-01T07:54:40.394Z,99551.44
2022-09-01T07:55:44.141Z,99557.97
2022-09-01T07:56:47.229Z,99553.94
2022-09-01T07:57:49.968Z,99546.78
2022-09-01T07:58:53.632Z,99547.53
2022-09-01T07:59:58.898Z,99554.88
2022-09-01T08:01:18.897Z,99551.59
2022-09-01T08:02:24.612Z,99548.06
2022-09-01T08:03:27.228Z,99541.53
2022-09-01T08:04:30.045Z,99538.91
2022-09-01T08:05:33.542Z,99550.31
2022-09-01T08:06:38.451Z,99549.88
2022-09-01T08:07:57.659Z,99555.25
2022-09-01T08:09:11.955Z,99551.44
2022-09-01T08:10:28.023Z,99558.63
2022-09-01T08:12:57.568Z,99548.03
2022-09-01T08:14:02.314Z,99542.81
2022-09-01T08:15:41.030Z,99549.00
2022-09-01T08:16:39.369Z,99555.84
2022-09-01T08:17:52.125Z,99564.56
2022-09-01T08:18:57.046Z,99560.69
2022-09-01T08:20:03.776Z,99559.47
2022-09-01T08:21:30.963Z,99564.88
2022-09-01T08:22:38.162Z,99570.53
2022-09-01T08:23:55.108Z,99571.25
2022-09-01T08:24:58.097Z,99571.78
2022-09-01T08:26:06.986Z,99579.59
2022-09-01T08:27:09.870Z,99579.94
2022-09-01T08:28:14.880Z,99566.06
2022-09-01T08:29:20.292Z,99580.19
2022-09-01T08:30:23.464Z,99577.78
2022-09-01T08:31:30.648Z,99575.25
2022-09-01T08:32:35.638Z,99580.19
2022-09-01T08:33:39.605Z,99584.50
2022-09-01T08:34:43.466Z,99577.03
2022-09-01T08:35:49.032Z,99568.56
2022-09-01T08:36:52.793Z,99576.25
2022-09-01T08:37:56.514Z,99569.72
2022-09-01T08:39:00.141Z,99573.50
2022-09-01T08:40:07.667Z,99580.59
2022-09-01T08:41:19.237Z,99578.88
2022-09-01T08:42:58.909Z,99584.44
2022-09-01T08:44:25.482Z,99576.31
2022-09-01T08:45:43.467Z,99565.22
2022-09-01T08:46:46.387Z,99575.28
2022-09-01T08:48:29.198Z,99572.22
2022-09-01T08:49:25.778Z,99575.41
2022-09-01T08:50:51.867Z,99567.16
2022-09-01T08:53:09.186Z,99567.97
2022-09-01T08:54:29.763Z,99576.31
2022-09-01T08:55:43.845Z,99578.25
2022-09-01T08:56:47.301Z,99566.38
2022-09-01T08:57:57.158Z,99560.16
2022-09-01T08:59:02.907Z,99569.69
2022-09-01T09:00:18.125Z,99565.66
2022-09-01T09:01:42.765Z,99562.97
2022-09-01T09:03:07.489Z,99571.94
2022-09-01T09:04:28.431Z,99572.22
2022-09-01T09:05:58.671Z,99581.00
2022-09-01T09:07:27.727Z,99567.78
2022-09-01T09:08:51.563Z,99564.47
2022-09-01T09:10:02.974Z,99563.19
2022-09-01T09:11:38.793Z,99566.06
2022-09-01T09:13:08.204Z,99568.19
2022-09-01T09:14:40.137Z,99574.44
2022-09-01T09:15:47.282Z,99575.38
2022-09-01T09:16:53.953Z,99577.44
2022-09-01T09:18:05.252Z,99575.25
2022-09-01T09:19:37.618Z,99573.28
2022-09-01T09:20:40.875Z,99570.16
2022-09-01T09:21:47.482Z,99577.56
2022-09-01T09:22:50.971Z,99582.31
2022-09-01T09:24:22.676Z,99583.97
2022-09-01T09:25:25.240Z,99582.25
2022-09-01T09:26:27.593Z,99578.56
2022-09-01T09:27:36.567Z,99571.09
2022-09-01T09:28:40.084Z,99573.31
2022-09-01T09:29:45.489Z,99580.88
2022-09-01T09:30:48.722Z,99574.59
2022-09-01T09:32:22.583Z,99572.00
2022-09-01T09:33:51.648Z,99573.03
2022-09-01T09:35:34.282Z,99571.31
2022-09-01T09:36:37.469Z,99568.47
2022-09-01T09:37:39.816Z,99568.25
2022-09-01T09:38:42.672Z,99565.31
2022-09-01T09:39:45.473Z,99569.34
2022-09-01T09:41:25.593Z,99568.38
2022-09-01T09:42:33.415Z,99566.19
2022-09-01T09:44:02.500Z,99570.16
2022-09-01T09:45:05.898Z,99555.84
2022-09-01T09:46:25.278Z,99567.03
2022-09-01T09:47:44.714Z,99572.13
2022-09-01T09:48:48.377Z,99565.00
2022-09-01T09:50:12.425Z,99570.44
2022-09-01T09:51:21.298Z,99561.78
2022-09-01T09:52:23.604Z,99565.31
2022-09-01T09:53:32.546Z,99553.88
2022-09-01T09:54:37.393Z,99558.78
2022-09-01T09:55:57.769Z,99554.28
2022-09-01T09:57:09.600Z,99563.44
2022-09-01T09:58:12.626Z,99564.38
2022-09-01T09:59:57.114Z,99555.75
2022-09-01T10:01:25.854Z,99554.41
2022-09-01T10:02:43.914Z,99547.75
2022-09-01T10:03:49.378Z,99553.97
2022-09-01T10:04:55.774Z,99557.63
2022-09-01T10:05:58.330Z,99560.38
2022-09-01T10:07:00.588Z,99560.69
2022-09-01T10:08:04.261Z,99559.03
2022-09-01T10:09:27.296Z,99568.56
2022-09-01T10:10:32.266Z,99564.31
2022-09-01T10:11:41.465Z,99556.91
2022-09-01T10:12:44.000Z,99561.91
2022-09-01T10:13:46.246Z,99555.44
2022-09-01T10:14:53.798Z,99557.56
2022-09-01T10:15:59.801Z,99555.31
2022-09-01T10:17:09.014Z,99569.16
2022-09-01T10:18:21.764Z,99564.22
2022-09-01T10:19:35.960Z,99560.84
2022-09-01T10:20:39.373Z,99548.69
2022-09-01T10:21:47.299Z,99550.06
2022-09-01T10:22:50.975Z,99556.84
2022-09-01T10:23:53.437Z,99563.03
2022-09-01T10:24:56.981Z,99549.41
2022-09-01T10:26:09.762Z,99554.75
2022-09-01T10:27:34.876Z,99546.34
2022-09-01T10:28:49.951Z,99553.16
2022-09-01T10:31:29.400Z,99557.72
2022-09-01T10:32:52.509Z,99550.84
2022-09-01T10:33:59.165Z,99552.88
2022-09-01T10:35:04.491Z,99549.75
2022-09-01T10:36:08.159Z,99550.63
2022-09-01T10:37:15.715Z,99549.91
2022-09-01T10:38:29.366Z,99550.66
2022-09-01T10:39:33.570Z,99546.66
2022-09-01T10:40:49.274Z,99551.97
2022-09-01T10:42:00.487Z,99544.91
2022-09-01T10:43:25.579Z,99550.09
2022-09-01T10:44:35.945Z,99548.03
2022-09-01T10:45:43.902Z,99549.78
2022-09-01T10:46:50.944Z,99547.78
2022-09-01T10:47:54.733Z,99546.66
2022-09-01T10:49:02.864Z,99543.84
2022-09-01T10:50:35.458Z,99536.63
2022-09-01T10:51:51.513Z,99544.25
2022-09-01T10:52:57.418Z,99540.84
2022-09-01T10:54:02.513Z,99547.84
2022-09-01T10:55:26.672Z,99542.41
2022-09-01T10:56:51.339Z,99550.09
2022-09-01T10:58:11.428Z,99551.78
2022-09-01T10:59:35.678Z,99544.06
2022-09-01T11:00:40.322Z,99534.50
2022-09-01T11:01:49.029Z,99543.06
2022-09-01T11:04:58.442Z,99538.47
2022-09-01T11:06:12.506Z,99537.69
2022-09-01T11:07:56.545Z,99541.72
2022-09-01T11:09:00.796Z,99533.94
2022-09-01T11:10:34.432Z,99542.78
2022-09-01T11:11:47.283Z,99540.78
2022-09-01T11:13:21.138Z,99544.13
2022-09-01T11:14:26.847Z,99546.53
2022-09-01T11:15:42.700Z,99540.56
2022-09-01T11:17:23.024Z,99545.53
2022-09-01T11:18:29.510Z,99544.22
2022-09-01T11:19:44.483Z,99541.84
2022-09-01T11:20:47.289Z,99535.66
2022-09-01T11:22:09.364Z,99534.25
2022-09-01T11:23:30.353Z,99539.78
2022-09-01T11:24:38.372Z,99539.00
2022-09-01T11:25:41.017Z,99529.31
2022-09-01T11:26:48.528Z,99523.44
2022-09-01T11:27:50.793Z,99536.06
2022-09-01T11:28:53.047Z,99527.75
2022-09-01T11:30:09.211Z,99525.97
2022-09-01T11:31:19.224Z,99527.59
2022-09-01T11:32:27.730Z,99523.16
2022-09-01T11:33:56.263Z,99506.56
2022-09-01T11:35:02.398Z,99521.09
2022-09-01T11:36:13.054Z,99512.34
2022-09-01T11:37:17.377Z,99520.63
2022-09-01T11:38:20.556Z,99516.56
2022-09-01T11:39:56.213Z,99513.72
2022-09-01T11:40:58.645Z,99513.31
2022-09-01T11:42:28.356Z,99522.34
2022-09-01T11:43:31.529Z,99523.03
2022-09-01T11:44:54.897Z,99514.09
2022-09-01T11:46:02.670Z,99516.97
2022-09-01T11:47:14.601Z,99521.91
2022-09-01T11:48:17.627Z,99512.66
2022-09-01T11:49:32.123Z,99520.91
2022-09-01T11:50:38.341Z,99516.09
2022-09-01T11:51:46.884Z,99510.53
2022-09-01T11:53:05.566Z,99518.28
2022-09-01T11:54:08.585Z,99524.22
2022-09-01T11:55:11.248Z,99521.28
2022-09-01T11:56:17.723Z,99518.34
2022-09-01T11:57:29.562Z,99514.13
2022-09-01T11:58:39.072Z,99511.78
2022-09-01T11:59:43.248Z,99506.34
2022-09-01T12:00:45.577Z,99510.44
2022-09-01T12:01:47.798Z,99512.28
2022-09-01T12:02:52.020Z,99515.00
2022-09-01T12:03:54.906Z,99517.34
2022-09-01T12:04:57.925Z,99515.69
2022-09-01T12:06:04.650Z,99502.13
2022-09-01T12:07:11.203Z,99507.44
2022-09-01T12:08:18.357Z,99506.25
2022-09-01T12:09:44.220Z,99501.16
2022-09-01T12:10:47.185Z,99495.91
2022-09-01T12:11:51.195Z,99506.13
2022-09-01T12:13:07.109Z,99511.16
2022-09-01T12:14:12.062Z,99509.72
2022-09-01T12:15:39.309Z,99500.31
2022-09-01T12:17:01.299Z,99497.84
2022-09-01T12:18:35.584Z,99498.59
2022-09-01T12:19:39.378Z,99502.84
2022-09-01T12:20:41.766Z,99483.66
2022-09-01T12:22:16.329Z,99493.56
2022-09-01T12:23:40.248Z,99483.66
2022-09-01T12:24:48.145Z,99488.75
2022-09-01T12:25:50.841Z,99483.53
2022-09-01T12:26:57.312Z,99479.91
2022-09-01T12:28:01.682Z,99493.53
2022-09-01T12:29:05.536Z,99484.94
2022-09-01T12:30:08.421Z,99484.63
2022-09-01T12:31:17.055Z,99478.81
2022-09-01T12:32:20.003Z,99490.91
2022-09-01T12:33:24.765Z,99487.91
2022-09-01T12:34:33.022Z,99489.03
2022-09-01T12:35:35.883Z,99491.13
2022-09-01T12:36:38.632Z,99481.41
2022-09-01T12:37:41.089Z,99481.44
2022-09-01T12:38:43.404Z,99484.66
2022-09-01T12:39:51.489Z,99481.63
2022-09-01T12:40:56.232Z,99487.59
2022-09-01T12:42:09.474Z,99484.81
2022-09-01T12:43:26.794Z,99490.19
2022-09-01T12:44:53.776Z,99484.41
2022-09-01T12:45:59.795Z,99483.03
2022-09-01T12:47:08.845Z,99489.00
2022-09-01T12:48:25.752Z,99482.66
2022-09-01T12:49:37.657Z,99477.44
2022-09-01T12:50:48.128Z,99480.00
2022-09-01T12:52:05.444Z,99487.16
2022-09-01T12:53:17.767Z,99492.63
2022-09-01T12:54:25.796Z,99480.69
2022-09-01T12:56:51.291Z,99467.59
2022-09-01T12:57:57.541Z,99473.22
2022-09-01T12:59:15.717Z,99469.00
2022-09-01T13:00:21.973Z,99470.91
2022-09-01T13:01:28.534Z,99464.03
2022-09-01T13:02:36.858Z,99465.63
2022-09-01T13:03:39.448Z,99473.97
2022-09-01T13:04:42.022Z,99470.63
2022-09-01T13:05:47.152Z,99473.47
2022-09-01T13:06:50.183Z,99465.25
2022-09-01T13:07:57.735Z,99483.03
2022-09-01T13:08:59.971Z,99478.56
2022-09-01T13:10:02.499Z,99470.09
2022-09-01T13:11:11.387Z,99473.78
2022-09-01T13:12:21.576Z,99462.31
2022-09-01T13:13:25.795Z,99468.06
2022-09-01T13:14:28.510Z,99472.44
2022-09-01T13:15:31.357Z,99469.84
2022-09-01T13:16:34.054Z,99471.66
2022-09-01T13:17:38.394Z,99456.34
2022-09-01T13:20:07.164Z,99463.09
2022-09-01T13:21:09.870Z,99456.34
2022-09-01T13:22:12.151Z,99467.31
2022-09-01T13:23:14.783Z,99453.16
2022-09-01T13:24:17.872Z,99449.19
2022-09-01T13:25:22.277Z,99458.56
2022-09-01T13:26:24.602Z,99458.41
2022-09-01T13:27:27.030Z,99459.09
2022-09-01T13:28:29.410Z,99454.19
2022-09-01T13:29:31.811Z,99453.19
2022-09-01T13:30:35.000Z,99455.75
2022-09-01T13:31:37.579Z,99449.09
2022-09-01T13:33:18.849Z,99452.56
2022-09-01T13:34:22.394Z,99455.50
2022-09-01T13:35:26.121Z,99448.63
2022-09-01T13:36:46.929Z,99451.06
2022-09-01T13:37:51.051Z,99445.59
2022-09-01T13:38:55.688Z,99463.03
2022-09-01T13:39:58.162Z,99447.69
2022-09-01T13:41:02.149Z,99447.09
2022-09-01T13:42:04.490Z,99444.41
2022-09-01T13:43:06.895Z,99453.44
2022-09-01T13:44:10.471Z,99463.63
2022-09-01T13:45:15.146Z,99453.88
2022-09-01T13:46:18.835Z,99465.03
2022-09-01T13:47:29.748Z,99460.66
2022-09-01T13:50:08.397Z,99455.59
2022-09-01T13:51:15.389Z,99462.50
2022-09-01T13:52:19.595Z,99457.38